KRUE

Russellville Regional Airport

Russellville, Arkansas, USA
METAR KRUE 231053Z AUTO 00000KT 10SM CLR 06/06 A3022 RMK AO2 SLP230 T00560056
Observed Flight Rules
Oct-23 @ 10:53 UTC (56 minutes ago) Visual Flight Rules
Visibility Clouds
10 miles
  • Clear skies
Temperatures Readings
Current 6°C / 43°F
Dewpoint 6°C / 43°F
Humidity 100%
Altimeter 30.22" Hg
Pressure 1023 hPa
Elevation 115
METAR KRUE 231053Z AUTO 00000KT 10SM CLR 06/06 A3022 RMK AO2 SLP230 T00560056
Observed Flight Rules
Oct-23 @ 10:53 UTC
(56 minutes ago)
VFR
Clouds
  • Clear skies
Temperature Dewpoint
6°C / 43°F 6°C / 43°F
Humidity Altimeter Pressure
100% 30.22" Hg 1023 hPa